Time;durP1;ratioP1;P1;durP2;ratioP2;P2;SDS_P1;SDS_P2;PMS_P1;PMS_P2;Temp;Humidity;BMP_temperature;BMP_pressure;BME280_temperature;BME280_humidity;BME280_pressure;Samples;Min_cycle;Max_cycle;Signal;HPM_P1;HPM_P2
2022/11/24 00:02:45;;;;;;;74.55;70.35;;;;;;;;;;10239616;28;20426;-65
2022/11/24 00:07:41;;;;;;;72.72;68.45;;;;;;;;;;10246154;28;20734;-65
2022/11/24 00:12:37;;;;;;;75.40;71.07;;;;;;;;;;10250547;28;20521;-65
2022/11/24 00:17:34;;;;;;;79.95;75.25;;;;;;;;;;10237037;28;20042;-65
2022/11/24 00:22:30;;;;;;;81.00;76.10;;;;;;;;;;10246731;28;20050;-65
2022/11/24 00:27:26;;;;;;;81.88;77.32;;;;;;;;;;10248672;28;20772;-65
2022/11/24 00:32:22;;;;;;;82.85;78.03;;;;;;;;;;10263070;28;20529;-65
2022/11/24 00:37:19;;;;;;;90.07;85.28;;;;;;;;;;10250759;28;20044;-65
2022/11/24 00:42:15;;;;;;;92.63;87.55;;;;;;;;;;10257974;28;20040;-65
2022/11/24 00:47:12;;;;;;;94.13;88.70;;;;;;;;;;10243082;28;20103;-65
2022/11/24 00:52:08;;;;;;;100.15;94.43;;;;;;;;;;10236956;28;20037;-65
2022/11/24 00:57:04;;;;;;;96.45;91.18;;;;;;;;;;10239344;28;20037;-65
2022/11/24 01:02:00;;;;;;;102.93;97.35;;;;;;;;;;10252810;28;20248;-65
2022/11/24 01:06:57;;;;;;;107.95;101.43;;;;;;;;;;10243846;28;20521;-65
2022/11/24 01:12:03;;;;;;;106.88;100.72;;;;;;;;;;10245121;28;20049;-65
2022/11/24 01:16:59;;;;;;;110.53;104.47;;;;;;;;;;10246934;28;20120;-65
2022/11/24 01:21:55;;;;;;;108.60;102.90;;;;;;;;;;10250707;28;20055;-65
2022/11/24 01:26:52;;;;;;;111.03;104.90;;;;;;;;;;10237569;28;20553;-65
2022/11/24 01:31:48;;;;;;;109.40;103.55;;;;;;;;;;10253304;28;20052;-65
2022/11/24 01:36:44;;;;;;;113.68;107.20;;;;;;;;;;10257110;28;20526;-65
2022/11/24 01:41:40;;;;;;;122.68;114.97;;;;;;;;;;10238794;28;20041;-65
2022/11/24 01:46:44;;;;;;;120.38;113.70;;;;;;;;;;10246467;28;20053;-65
2022/11/24 01:51:43;;;;;;;123.68;116.65;;;;;;;;;;10256981;28;20055;-65
2022/11/24 01:56:41;;;;;;;124.88;117.65;;;;;;;;;;10241956;28;20434;-65
2022/11/24 02:01:37;;;;;;;128.90;121.65;;;;;;;;;;10241474;28;20050;-65
2022/11/24 02:06:35;;;;;;;129.73;122.50;;;;;;;;;;10244276;28;20168;-65
2022/11/24 02:11:36;;;;;;;129.93;122.55;;;;;;;;;;10244765;28;20140;-65
2022/11/24 02:16:34;;;;;;;130.02;123.05;;;;;;;;;;10236587;28;20434;-65
2022/11/24 02:21:30;;;;;;;131.73;124.28;;;;;;;;;;10238678;28;20042;-65
2022/11/24 02:26:35;;;;;;;131.35;123.55;;;;;;;;;;10237126;28;20049;-65
2022/11/24 02:31:31;;;;;;;136.23;128.75;;;;;;;;;;10239209;28;20053;-65
2022/11/24 02:36:28;;;;;;;133.77;126.57;;;;;;;;;;10250079;28;20049;-65
2022/11/24 02:41:25;;;;;;;131.38;124.43;;;;;;;;;;10249059;28;20753;-65
2022/11/24 02:46:21;;;;;;;129.82;122.63;;;;;;;;;;10244976;28;20071;-65
2022/11/24 02:51:18;;;;;;;130.23;123.32;;;;;;;;;;10242938;28;20072;-65
2022/11/24 02:56:14;;;;;;;130.35;123.15;;;;;;;;;;10243354;28;20128;-65
2022/11/24 03:01:10;;;;;;;129.40;121.95;;;;;;;;;;10248703;28;20053;-65
2022/11/24 03:06:06;;;;;;;127.47;120.47;;;;;;;;;;10250656;28;20087;-65
2022/11/24 03:11:03;;;;;;;126.70;119.57;;;;;;;;;;10254554;28;20450;-65
2022/11/24 03:15:59;;;;;;;127.57;120.38;;;;;;;;;;10244621;28;20438;-65
2022/11/24 03:20:58;;;;;;;127.55;120.57;;;;;;;;;;10255155;28;20059;-65
2022/11/24 03:26:05;;;;;;;128.45;121.25;;;;;;;;;;10245893;28;20049;-65
2022/11/24 03:31:01;;;;;;;129.48;121.97;;;;;;;;;;10250033;28;20045;-65
2022/11/24 03:35:58;;;;;;;130.23;122.70;;;;;;;;;;10241707;28;20110;-65
2022/11/24 03:40:54;;;;;;;133.57;125.63;;;;;;;;;;10247077;28;20045;-65
2022/11/24 03:45:50;;;;;;;133.55;125.10;;;;;;;;;;10254521;28;20056;-65
2022/11/24 03:50:54;;;;;;;137.07;128.70;;;;;;;;;;10253205;28;20046;-65
2022/11/24 03:55:50;;;;;;;140.68;132.07;;;;;;;;;;10248655;28;20056;-65
2022/11/24 04:00:47;;;;;;;143.93;135.38;;;;;;;;;;10256977;28;20067;-65
2022/11/24 04:05:44;;;;;;;142.05;133.52;;;;;;;;;;10256042;28;20620;-65
2022/11/24 04:10:41;;;;;;;145.65;137.07;;;;;;;;;;10254273;28;20041;-65
2022/11/24 04:15:38;;;;;;;149.25;140.35;;;;;;;;;;10242979;28;20060;-65
2022/11/24 04:20:35;;;;;;;147.05;137.57;;;;;;;;;;10251087;28;20065;-66
2022/11/24 04:25:32;;;;;;;146.00;137.50;;;;;;;;;;10232680;28;20052;-65
2022/11/24 04:30:28;;;;;;;148.45;139.18;;;;;;;;;;10250869;28;20571;-65
2022/11/24 04:35:24;;;;;;;148.40;139.57;;;;;;;;;;10242261;28;20053;-65
2022/11/24 04:40:20;;;;;;;145.30;136.18;;;;;;;;;;10239206;28;20596;-65
2022/11/24 04:45:16;;;;;;;145.65;137.15;;;;;;;;;;10243884;28;20047;-65
2022/11/24 04:50:13;;;;;;;145.52;136.40;;;;;;;;;;10252862;28;20379;-65
2022/11/24 04:55:09;;;;;;;143.82;135.38;;;;;;;;;;10245487;28;20053;-65
2022/11/24 05:00:06;;;;;;;143.65;134.75;;;;;;;;;;10252834;28;20037;-65
2022/11/24 05:05:03;;;;;;;139.88;131.40;;;;;;;;;;10245266;28;20053;-66
2022/11/24 05:15:14;;;;;;;139.57;130.65;;;;;;;;;;10246491;28;20143;-65
2022/11/24 05:20:10;;;;;;;129.65;121.90;;;;;;;;;;10244341;28;20056;-65
2022/11/24 05:25:06;;;;;;;134.10;125.90;;;;;;;;;;10249262;28;20048;-65
2022/11/24 05:30:03;;;;;;;131.10;123.05;;;;;;;;;;10249223;28;20076;-65
2022/11/24 05:35:01;;;;;;;131.35;123.45;;;;;;;;;;10239703;28;20478;-65
2022/11/24 05:39:57;;;;;;;133.10;124.63;;;;;;;;;;10253317;28;20048;-65
2022/11/24 05:44:53;;;;;;;130.48;122.68;;;;;;;;;;10248081;28;20049;-65
2022/11/24 05:49:50;;;;;;;126.72;118.65;;;;;;;;;;10245900;28;20058;-65
2022/11/24 05:54:47;;;;;;;126.38;118.15;;;;;;;;;;10250876;28;20448;-65
2022/11/24 05:59:43;;;;;;;126.68;118.82;;;;;;;;;;10249736;28;20054;-65
2022/11/24 06:04:39;;;;;;;129.27;121.18;;;;;;;;;;10253450;28;20136;-65
2022/11/24 06:09:36;;;;;;;129.75;121.65;;;;;;;;;;10244998;28;20400;-65
2022/11/24 06:14:33;;;;;;;126.40;117.85;;;;;;;;;;10231659;28;20148;-65
2022/11/24 06:19:29;;;;;;;129.93;121.53;;;;;;;;;;10238459;28;20064;-65
2022/11/24 06:24:26;;;;;;;126.40;118.07;;;;;;;;;;10246933;28;20041;-65
2022/11/24 06:29:22;;;;;;;124.85;116.95;;;;;;;;;;10244214;28;20060;-65
2022/11/24 06:34:18;;;;;;;127.90;119.57;;;;;;;;;;10254988;28;20452;-65
2022/11/24 06:39:14;;;;;;;125.93;118.00;;;;;;;;;;10243148;28;20033;-65
2022/11/24 06:44:11;;;;;;;122.95;115.03;;;;;;;;;;10258170;28;20037;-65
2022/11/24 06:49:07;;;;;;;125.63;117.70;;;;;;;;;;10259288;28;20128;-65
2022/11/24 06:54:07;;;;;;;119.82;111.78;;;;;;;;;;10246485;28;20125;-65
2022/11/24 06:59:03;;;;;;;116.78;109.53;;;;;;;;;;10250360;28;20538;-65
2022/11/24 07:03:59;;;;;;;119.47;111.93;;;;;;;;;;10248974;28;20070;-65
2022/11/24 07:08:56;;;;;;;117.57;110.20;;;;;;;;;;10247146;28;20414;-65
2022/11/24 07:13:52;;;;;;;116.72;109.32;;;;;;;;;;10252458;28;20052;-65
2022/11/24 07:18:55;;;;;;;118.20;110.30;;;;;;;;;;10249369;28;20789;-65
2022/11/24 07:23:52;;;;;;;124.95;116.75;;;;;;;;;;10252202;28;20336;-65
2022/11/24 07:28:48;;;;;;;119.47;111.82;;;;;;;;;;10256311;28;20538;-65
2022/11/24 07:33:48;;;;;;;120.93;112.95;;;;;;;;;;10251887;28;20052;-65
2022/11/24 07:38:45;;;;;;;121.70;113.25;;;;;;;;;;10242034;28;20045;-65
2022/11/24 07:43:41;;;;;;;125.22;116.88;;;;;;;;;;10251125;28;20056;-65
2022/11/24 07:48:37;;;;;;;124.82;115.90;;;;;;;;;;10255778;28;20049;-65
2022/11/24 07:53:34;;;;;;;123.43;115.28;;;;;;;;;;10255457;28;20072;-65
2022/11/24 07:58:31;;;;;;;128.90;120.00;;;;;;;;;;10239090;28;20037;-65
2022/11/24 08:03:28;;;;;;;126.47;118.25;;;;;;;;;;10254918;28;20522;-65
2022/11/24 08:08:25;;;;;;;126.80;118.43;;;;;;;;;;10246863;28;20048;-65
2022/11/24 08:13:21;;;;;;;133.85;124.90;;;;;;;;;;10253888;28;20446;-65
2022/11/24 08:18:17;;;;;;;132.88;123.28;;;;;;;;;;10245605;28;20434;-65
2022/11/24 08:23:14;;;;;;;131.07;121.65;;;;;;;;;;10245291;28;20562;-65
2022/11/24 08:28:10;;;;;;;135.07;125.57;;;;;;;;;;10246393;28;20051;-65
2022/11/24 08:33:06;;;;;;;132.85;123.50;;;;;;;;;;10252038;28;20132;-65
2022/11/24 08:38:03;;;;;;;137.75;127.20;;;;;;;;;;10248777;28;20533;-65
2022/11/24 08:43:00;;;;;;;137.60;127.60;;;;;;;;;;10241280;28;20071;-65
2022/11/24 08:47:57;;;;;;;137.32;127.38;;;;;;;;;;10237672;28;20606;-65
2022/11/24 08:52:53;;;;;;;142.20;132.18;;;;;;;;;;10245888;28;20073;-65
2022/11/24 08:57:49;;;;;;;141.80;131.98;;;;;;;;;;10246276;28;20041;-65
2022/11/24 09:02:51;;;;;;;142.48;132.60;;;;;;;;;;10246783;28;20129;-65
2022/11/24 09:07:47;;;;;;;144.18;133.75;;;;;;;;;;10244820;28;20049;-65
2022/11/24 09:12:44;;;;;;;148.05;137.75;;;;;;;;;;10240407;28;20045;-65
2022/11/24 09:17:41;;;;;;;149.43;139.10;;;;;;;;;;10242758;28;20064;-65
2022/11/24 09:22:37;;;;;;;148.25;138.50;;;;;;;;;;10247539;28;20128;-65
2022/11/24 09:27:34;;;;;;;160.93;149.73;;;;;;;;;;10231851;28;20423;-65
2022/11/24 09:32:30;;;;;;;158.15;147.70;;;;;;;;;;10232597;28;20091;-65
2022/11/24 09:37:26;;;;;;;156.60;146.55;;;;;;;;;;10242735;28;20452;-65
2022/11/24 09:42:31;;;;;;;153.70;143.73;;;;;;;;;;10238935;28;20046;-65
2022/11/24 09:47:28;;;;;;;158.10;146.00;;;;;;;;;;10250401;28;20061;-65
2022/11/24 09:52:37;;;;;;;157.95;147.85;;;;;;;;;;10254107;28;20049;-65
2022/11/24 09:57:35;;;;;;;160.48;150.95;;;;;;;;;;10244283;28;20052;-65
2022/11/24 10:02:33;;;;;;;153.82;143.88;;;;;;;;;;10244351;28;20048;-65
2022/11/24 10:07:30;;;;;;;154.27;144.43;;;;;;;;;;10247343;28;20412;-65
2022/11/24 10:12:39;;;;;;;147.38;137.90;;;;;;;;;;10249332;28;20129;-65
2022/11/24 10:17:35;;;;;;;141.90;132.45;;;;;;;;;;10244321;28;20050;-65
2022/11/24 10:22:40;;;;;;;131.90;123.55;;;;;;;;;;10250436;28;20513;-65
2022/11/24 10:27:45;;;;;;;131.82;124.15;;;;;;;;;;10235313;28;20049;-65
2022/11/24 10:32:44;;;;;;;122.55;115.10;;;;;;;;;;10256941;28;20133;-65
2022/11/24 10:37:44;;;;;;;117.93;110.43;;;;;;;;;;10252178;28;20048;-65
2022/11/24 10:42:41;;;;;;;107.68;100.72;;;;;;;;;;10250557;28;20041;-66
2022/11/24 10:47:38;;;;;;;107.18;100.22;;;;;;;;;;10256880;28;20049;-65
2022/11/24 10:52:55;;;;;;;101.78;94.95;;;;;;;;;;10256624;28;20045;-65
2022/11/24 10:57:51;;;;;;;95.30;89.30;;;;;;;;;;10250447;28;20159;-65
2022/11/24 11:02:49;;;;;;;92.63;86.60;;;;;;;;;;10259754;28;20069;-65
2022/11/24 11:07:45;;;;;;;93.43;87.03;;;;;;;;;;10251413;28;20061;-65
2022/11/24 11:12:42;;;;;;;90.13;84.03;;;;;;;;;;10248528;28;20434;-65
2022/11/24 11:17:42;;;;;;;82.47;77.22;;;;;;;;;;10239295;28;20434;-65
2022/11/24 11:22:41;;;;;;;91.25;85.35;;;;;;;;;;10247903;28;20603;-65
2022/11/24 11:27:39;;;;;;;83.18;77.38;;;;;;;;;;10249660;28;20053;-65
2022/11/24 11:32:47;;;;;;;80.20;74.72;;;;;;;;;;10248752;28;20064;-66
2022/11/24 11:38:05;;;;;;;81.95;76.45;;;;;;;;;;10237495;28;20041;-65
2022/11/24 11:43:04;;;;;;;86.22;80.15;;;;;;;;;;10257366;28;20686;-65
2022/11/24 11:48:01;;;;;;;81.15;75.80;;;;;;;;;;10252393;28;20128;-65
2022/11/24 11:53:01;;;;;;;84.75;79.00;;;;;;;;;;10256639;28;20495;-65
2022/11/24 11:58:03;;;;;;;82.78;76.85;;;;;;;;;;10251802;28;20045;-65
2022/11/24 12:03:09;;;;;;;92.60;86.70;;;;;;;;;;10256007;28;20053;-65
2022/11/24 12:08:18;;;;;;;91.97;86.05;;;;;;;;;;10246951;28;20064;-65
2022/11/24 12:13:27;;;;;;;98.30;91.70;;;;;;;;;;10249730;28;20069;-66
2022/11/24 12:18:34;;;;;;;94.20;88.30;;;;;;;;;;10245562;28;20056;-65
2022/11/24 12:24:13;;;;;;;92.63;86.68;;;;;;;;;;10239448;28;20118;-65
2022/11/24 12:29:32;;;;;;;86.93;81.10;;;;;;;;;;10247494;28;20116;-65
2022/11/24 12:34:35;;;;;;;97.30;90.72;;;;;;;;;;10246254;28;20056;-66
2022/11/24 12:39:37;;;;;;;102.13;94.60;;;;;;;;;;10236930;28;20052;-65
2022/11/24 12:44:43;;;;;;;97.10;90.88;;;;;;;;;;10249026;28;20056;-65
2022/11/24 12:50:06;;;;;;;94.05;87.80;;;;;;;;;;10254122;28;20443;-65
2022/11/24 12:55:03;;;;;;;;;;;;;;;;;;10240385;28;20408;-65
2022/11/24 13:00:05;;;;;;;74.45;67.93;;;;;;;;;;10253678;28;20363;-65
2022/11/24 13:05:04;;;;;;;57.42;53.03;;;;;;;;;;10245759;28;20527;-66
2022/11/24 13:10:19;;;;;;;55.53;51.28;;;;;;;;;;10246822;28;20160;-65
2022/11/24 13:15:51;;;;;;;52.63;48.58;;;;;;;;;;10234314;28;20389;-65
2022/11/24 13:21:26;;;;;;;40.08;36.42;;;;;;;;;;10241648;28;20483;-65
2022/11/24 13:26:48;;;;;;;38.75;35.15;;;;;;;;;;10248654;28;20041;-65
2022/11/24 13:31:45;;;;;;;36.72;33.75;;;;;;;;;;10233919;28;20095;-65
2022/11/24 13:36:52;;;;;;;39.33;35.35;;;;;;;;;;10248574;28;20519;-65
2022/11/24 13:41:48;;;;;;;42.05;38.22;;;;;;;;;;10242111;28;20050;-65
2022/11/24 13:47:00;;;;;;;34.53;30.95;;;;;;;;;;10246069;28;20061;-65
2022/11/24 13:52:20;;;;;;;37.85;34.50;;;;;;;;;;10252020;28;20041;-65
2022/11/24 13:57:36;;;;;;;35.85;32.33;;;;;;;;;;10234154;28;20041;-65
2022/11/24 14:02:33;;;;;;;34.88;32.08;;;;;;;;;;10249906;28;20517;-65
2022/11/24 14:07:30;;;;;;;37.05;33.75;;;;;;;;;;10244528;28;20086;-65
2022/11/24 14:12:30;;;;;;;37.22;34.20;;;;;;;;;;10249172;28;20072;-65
2022/11/24 14:17:27;;;;;;;38.40;35.28;;;;;;;;;;10243134;28;20068;-65
2022/11/24 14:22:35;;;;;;;40.20;36.88;;;;;;;;;;10244659;28;20075;-65
2022/11/24 14:27:32;;;;;;;42.80;38.85;;;;;;;;;;10232233;28;20441;-65
2022/11/24 14:32:29;;;;;;;43.85;39.88;;;;;;;;;;10238554;28;20132;-65
2022/11/24 14:37:25;;;;;;;46.75;42.95;;;;;;;;;;10243121;28;20128;-65
2022/11/24 14:42:22;;;;;;;52.55;48.33;;;;;;;;;;10243953;28;20057;-65
2022/11/24 14:47:21;;;;;;;57.53;52.92;;;;;;;;;;10244653;28;20045;-65
2022/11/24 14:52:25;;;;;;;55.40;51.00;;;;;;;;;;10255248;28;20084;-65
2022/11/24 14:57:28;;;;;;;56.20;51.80;;;;;;;;;;10247592;28;20050;-65
2022/11/24 15:02:43;;;;;;;59.03;54.10;;;;;;;;;;10248988;28;20037;-65
2022/11/24 15:07:41;;;;;;;61.53;56.65;;;;;;;;;;10247475;28;20048;-65
2022/11/24 15:12:39;;;;;;;57.95;53.42;;;;;;;;;;10248335;28;20495;-65
2022/11/24 15:17:35;;;;;;;63.05;57.45;;;;;;;;;;10244189;28;20041;-65
2022/11/24 15:22:33;;;;;;;56.30;52.45;;;;;;;;;;10249285;28;20124;-65
2022/11/24 15:27:29;;;;;;;58.42;54.10;;;;;;;;;;10240019;28;20060;-65
2022/11/24 15:32:26;;;;;;;66.40;61.40;;;;;;;;;;10250316;28;20136;-65
2022/11/24 15:37:22;;;;;;;64.85;60.33;;;;;;;;;;10245763;28;20624;-65
2022/11/24 15:42:18;;;;;;;65.90;61.13;;;;;;;;;;10250847;28;20544;-65
2022/11/24 15:47:14;;;;;;;66.22;61.20;;;;;;;;;;10249122;28;20073;-65
2022/11/24 15:52:13;;;;;;;66.10;61.10;;;;;;;;;;10244312;28;20040;-65
2022/11/24 15:57:10;;;;;;;71.10;65.90;;;;;;;;;;10254106;28;20040;-65
2022/11/24 16:02:07;;;;;;;77.65;71.65;;;;;;;;;;10256002;28;20414;-65
2022/11/24 16:07:05;;;;;;;75.80;70.30;;;;;;;;;;10251212;28;20056;-65
2022/11/24 16:12:02;;;;;;;74.72;68.95;;;;;;;;;;10254019;28;20120;-65
2022/11/24 16:16:59;;;;;;;76.35;70.50;;;;;;;;;;10242343;28;20045;-65
2022/11/24 16:21:55;;;;;;;75.20;69.82;;;;;;;;;;10249071;28;20132;-65
2022/11/24 16:26:51;;;;;;;79.45;73.88;;;;;;;;;;10246260;28;20076;-65
2022/11/24 16:31:49;;;;;;;81.50;75.93;;;;;;;;;;10244836;28;20048;-65
2022/11/24 16:36:45;;;;;;;85.40;79.13;;;;;;;;;;10240953;28;20057;-65
2022/11/24 16:41:41;;;;;;;86.15;79.80;;;;;;;;;;10242659;28;20052;-64
2022/11/24 16:46:37;;;;;;;91.65;84.18;;;;;;;;;;10242849;28;20041;-64
2022/11/24 16:51:34;;;;;;;89.15;82.80;;;;;;;;;;10248070;28;20526;-64
2022/11/24 16:56:30;;;;;;;95.13;88.28;;;;;;;;;;10234068;28;20450;-64
2022/11/24 17:01:28;;;;;;;95.72;89.18;;;;;;;;;;10248567;28;20140;-64
2022/11/24 17:06:25;;;;;;;96.15;89.45;;;;;;;;;;10250067;28;20057;-64
2022/11/24 17:11:23;;;;;;;100.18;93.57;;;;;;;;;;10257076;28;20128;-64
2022/11/24 17:16:20;;;;;;;98.85;91.85;;;;;;;;;;10242776;28;20041;-65
2022/11/24 17:21:17;;;;;;;101.80;93.93;;;;;;;;;;10248000;28;20044;-64
2022/11/24 17:26:15;;;;;;;104.43;97.05;;;;;;;;;;10242423;28;20047;-64
2022/11/24 17:31:22;;;;;;;107.18;99.88;;;;;;;;;;10240397;28;20040;-64
2022/11/24 17:36:19;;;;;;;109.47;101.57;;;;;;;;;;10230045;28;20091;-65
2022/11/24 17:41:16;;;;;;;110.13;102.00;;;;;;;;;;10242580;28;20116;-64
2022/11/24 17:46:13;;;;;;;106.78;99.63;;;;;;;;;;10239851;28;20053;-64
2022/11/24 17:51:13;;;;;;;111.78;104.18;;;;;;;;;;10252336;28;20136;-64
2022/11/24 17:56:16;;;;;;;115.55;107.55;;;;;;;;;;10247494;28;20053;-64
2022/11/24 18:01:12;;;;;;;117.80;109.35;;;;;;;;;;10239476;28;20038;-64
2022/11/24 18:06:10;;;;;;;116.18;108.47;;;;;;;;;;10247496;28;20091;-64
2022/11/24 18:11:07;;;;;;;120.80;112.38;;;;;;;;;;10238287;28;20048;-64
2022/11/24 18:16:05;;;;;;;122.32;113.05;;;;;;;;;;10227563;28;20123;-64
2022/11/24 18:21:02;;;;;;;120.03;111.53;;;;;;;;;;10247473;28;20041;-64
2022/11/24 18:25:59;;;;;;;123.43;115.38;;;;;;;;;;10240368;28;20048;-64
2022/11/24 18:31:02;;;;;;;122.15;113.38;;;;;;;;;;10249669;28;20476;-64
2022/11/24 18:35:59;;;;;;;121.45;113.00;;;;;;;;;;10246542;28;20136;-64
2022/11/24 18:40:57;;;;;;;127.32;118.93;;;;;;;;;;10245617;28;20044;-64
2022/11/24 18:45:53;;;;;;;126.25;117.82;;;;;;;;;;10257382;28;20495;-64
2022/11/24 18:50:54;;;;;;;130.75;122.40;;;;;;;;;;10259752;28;20453;-65
2022/11/24 18:55:53;;;;;;;131.75;123.28;;;;;;;;;;10244562;28;20044;-65
2022/11/24 19:00:50;;;;;;;131.05;122.35;;;;;;;;;;10259683;28;20159;-64
2022/11/24 19:05:47;;;;;;;132.25;123.57;;;;;;;;;;10251570;28;20419;-65
2022/11/24 19:10:44;;;;;;;127.75;119.22;;;;;;;;;;10254813;28;20041;-64
2022/11/24 19:15:40;;;;;;;126.28;118.20;;;;;;;;;;10251588;28;20049;-64
2022/11/24 19:20:36;;;;;;;124.40;116.07;;;;;;;;;;10257620;28;20055;-64
2022/11/24 19:25:33;;;;;;;131.32;122.90;;;;;;;;;;10245380;28;20046;-64
2022/11/24 19:30:29;;;;;;;129.82;121.53;;;;;;;;;;10250406;28;20115;-64
2022/11/24 19:35:25;;;;;;;125.32;117.43;;;;;;;;;;10244403;28;20048;-64
2022/11/24 19:40:21;;;;;;;131.02;122.82;;;;;;;;;;10252527;28;20072;-64
2022/11/24 19:45:17;;;;;;;130.43;122.40;;;;;;;;;;10257048;28;20045;-65
2022/11/24 19:50:14;;;;;;;133.38;124.78;;;;;;;;;;10257770;28;20045;-65
2022/11/24 19:55:10;;;;;;;130.95;122.82;;;;;;;;;;10245794;28;20084;-65
2022/11/24 20:00:07;;;;;;;132.25;124.35;;;;;;;;;;10247913;28;20133;-64
2022/11/24 20:05:03;;;;;;;131.70;123.38;;;;;;;;;;10247970;28;20079;-65
2022/11/24 20:09:59;;;;;;;129.68;122.05;;;;;;;;;;10245475;28;20152;-64
2022/11/24 20:15:03;;;;;;;133.93;126.05;;;;;;;;;;10243701;28;20045;-65
2022/11/24 20:19:59;;;;;;;136.13;127.65;;;;;;;;;;10247815;28;20055;-64
2022/11/24 20:24:55;;;;;;;138.77;130.77;;;;;;;;;;10242835;28;20060;-65
2022/11/24 20:29:51;;;;;;;138.93;130.80;;;;;;;;;;10253644;28;20046;-64
2022/11/24 20:34:48;;;;;;;134.00;126.15;;;;;;;;;;10244970;28;20148;-64
2022/11/24 20:39:44;;;;;;;140.50;132.18;;;;;;;;;;10246878;28;20128;-64
2022/11/24 20:44:40;;;;;;;135.25;127.55;;;;;;;;;;10234635;28;20128;-64
2022/11/24 20:49:37;;;;;;;135.15;127.53;;;;;;;;;;10241762;28;20076;-64
2022/11/24 20:54:33;;;;;;;128.20;120.53;;;;;;;;;;10237573;28;20049;-64
2022/11/24 20:59:30;;;;;;;130.07;122.38;;;;;;;;;;10247689;28;20042;-64
2022/11/24 21:04:26;;;;;;;128.90;121.38;;;;;;;;;;10241746;28;20553;-64
2022/11/24 21:09:23;;;;;;;130.60;123.13;;;;;;;;;;10238627;28;20049;-64
2022/11/24 21:14:19;;;;;;;131.02;123.30;;;;;;;;;;10234805;28;20128;-65
2022/11/24 21:19:17;;;;;;;132.00;123.75;;;;;;;;;;10256706;28;20037;-64
2022/11/24 21:24:14;;;;;;;134.00;125.80;;;;;;;;;;10245980;28;20124;-64
2022/11/24 21:29:11;;;;;;;133.48;125.40;;;;;;;;;;10249793;28;20037;-64
2022/11/24 21:34:08;;;;;;;135.68;127.97;;;;;;;;;;10248502;28;20503;-64
2022/11/24 21:39:04;;;;;;;133.90;126.18;;;;;;;;;;10253321;28;20043;-64
2022/11/24 21:44:00;;;;;;;131.95;124.10;;;;;;;;;;10245666;28;20041;-64
2022/11/24 21:48:57;;;;;;;135.30;127.50;;;;;;;;;;10247229;28;20132;-64
2022/11/24 21:53:53;;;;;;;133.20;125.85;;;;;;;;;;10251266;28;20507;-64
2022/11/24 21:58:50;;;;;;;132.40;124.47;;;;;;;;;;10250200;28;20522;-64
2022/11/24 22:03:46;;;;;;;129.80;122.07;;;;;;;;;;10255344;28;20045;-64
2022/11/24 22:08:43;;;;;;;122.45;114.93;;;;;;;;;;10251807;28;20061;-64
2022/11/24 22:13:40;;;;;;;122.65;114.78;;;;;;;;;;10252120;28;20041;-64
2022/11/24 22:18:37;;;;;;;128.18;119.32;;;;;;;;;;10250385;28;20044;-64
2022/11/24 22:23:34;;;;;;;125.25;116.78;;;;;;;;;;10253653;28;20061;-64
2022/11/24 22:28:34;;;;;;;125.85;116.25;;;;;;;;;;10242421;28;20041;-64
2022/11/24 22:33:30;;;;;;;123.80;115.90;;;;;;;;;;10242745;28;20041;-64
2022/11/24 22:38:27;;;;;;;132.15;124.05;;;;;;;;;;10256016;28;20034;-64
2022/11/24 22:43:24;;;;;;;136.00;126.30;;;;;;;;;;10250845;28;20041;-64
2022/11/24 22:48:20;;;;;;;137.05;128.45;;;;;;;;;;10248324;28;20072;-64
2022/11/24 22:53:16;;;;;;;140.63;131.70;;;;;;;;;;10256096;28;20042;-64
2022/11/24 22:58:12;;;;;;;141.70;132.80;;;;;;;;;;10242851;28;20040;-64
2022/11/24 23:03:08;;;;;;;144.57;135.40;;;;;;;;;;10259079;28;20126;-64
2022/11/24 23:08:05;;;;;;;142.45;133.25;;;;;;;;;;10240549;28;20043;-64
2022/11/24 23:13:01;;;;;;;146.93;137.60;;;;;;;;;;10241395;28;20139;-64
2022/11/24 23:17:57;;;;;;;143.35;134.25;;;;;;;;;;10245269;28;20041;-64
2022/11/24 23:22:55;;;;;;;140.45;131.40;;;;;;;;;;10241032;28;20045;-64
2022/11/24 23:27:51;;;;;;;142.18;132.93;;;;;;;;;;10246201;28;20392;-64
2022/11/24 23:32:48;;;;;;;141.93;132.40;;;;;;;;;;10252235;28;20542;-64
2022/11/24 23:37:44;;;;;;;143.27;133.95;;;;;;;;;;10254897;28;20526;-65
2022/11/24 23:43:00;;;;;;;142.00;132.38;;;;;;;;;;10253424;28;20041;-64
2022/11/24 23:47:56;;;;;;;138.48;128.90;;;;;;;;;;10254348;28;20068;-64
2022/11/24 23:52:53;;;;;;;136.10;126.00;;;;;;;;;;10257122;28;20053;-64
2022/11/24 23:57:49;;;;;;;134.43;125.13;;;;;;;;;;10253619;28;20124;-64
